createdAt,value
2023-05-21T00:02:21.541Z,6.07
2023-05-21T00:04:48.242Z,6.50
2023-05-21T00:07:15.751Z,6.80
2023-05-21T00:09:42.219Z,5.97
2023-05-21T00:12:09.070Z,6.50
2023-05-21T00:14:35.577Z,6.20
2023-05-21T00:17:02.159Z,6.88
2023-05-21T00:19:28.854Z,6.28
2023-05-21T00:21:56.076Z,5.85
2023-05-21T00:24:22.703Z,6.80
2023-05-21T00:26:49.274Z,6.90
2023-05-21T00:29:15.813Z,6.97
2023-05-21T00:31:42.496Z,6.07
2023-05-21T00:34:09.016Z,6.65
2023-05-21T00:36:35.615Z,6.53
2023-05-21T00:39:02.623Z,6.97
2023-05-21T00:41:30.338Z,6.72
2023-05-21T00:43:57.271Z,6.55
2023-05-21T00:46:24.132Z,6.78
2023-05-21T00:48:51.035Z,7.00
2023-05-21T00:51:18.851Z,7.13
2023-05-21T00:53:46.751Z,6.65
2023-05-21T00:56:13.700Z,6.57
2023-05-21T00:58:41.091Z,6.65
2023-05-21T01:01:13.764Z,6.72
2023-05-21T01:03:41.174Z,6.68
2023-05-21T01:06:08.577Z,6.90
2023-05-21T01:08:36.359Z,6.45
2023-05-21T01:11:03.421Z,7.43
2023-05-21T01:13:30.547Z,6.93
2023-05-21T01:15:58.736Z,7.20
2023-05-21T01:18:26.299Z,6.55
2023-05-21T01:20:53.754Z,7.20
2023-05-21T01:23:20.659Z,6.57
2023-05-21T01:25:47.489Z,7.78
2023-05-21T01:28:14.283Z,6.68
2023-05-21T01:30:41.575Z,6.90
2023-05-21T01:33:13.257Z,6.93
2023-05-21T01:35:44.176Z,6.80
2023-05-21T01:38:17.355Z,6.32
2023-05-21T01:40:46.885Z,6.82
2023-05-21T01:43:14.100Z,7.15
2023-05-21T01:45:42.143Z,7.55
2023-05-21T01:48:10.270Z,7.57
2023-05-21T01:50:37.931Z,7.18
2023-05-21T01:53:06.004Z,6.60
2023-05-21T01:55:32.693Z,7.00
2023-05-21T01:58:02.054Z,6.85
2023-05-21T02:00:29.551Z,6.45
2023-05-21T02:02:56.385Z,6.55
2023-05-21T02:05:22.988Z,7.30
2023-05-21T02:07:51.079Z,6.82
2023-05-21T02:10:18.116Z,6.80
2023-05-21T02:12:44.765Z,6.78
2023-05-21T02:15:11.299Z,7.30
2023-05-21T02:17:38.835Z,7.50
2023-05-21T02:20:11.910Z,7.35
2023-05-21T02:22:39.517Z,7.53
2023-05-21T02:25:07.473Z,7.93
2023-05-21T02:27:35.175Z,7.13
2023-05-21T02:30:02.147Z,6.65
2023-05-21T02:32:28.755Z,6.97
2023-05-21T02:34:55.314Z,7.85
2023-05-21T02:37:22.030Z,7.25
2023-05-21T02:39:48.461Z,7.30
2023-05-21T02:42:15.016Z,7.13
2023-05-21T02:44:41.766Z,6.63
2023-05-21T02:47:10.416Z,6.93
2023-05-21T02:49:36.939Z,7.10
2023-05-21T02:52:03.588Z,6.30
2023-05-21T02:54:30.148Z,7.07
2023-05-21T02:56:56.689Z,6.57
2023-05-21T02:59:23.447Z,6.80
2023-05-21T03:01:50.104Z,6.32
2023-05-21T03:04:21.855Z,6.30
2023-05-21T03:06:49.844Z,6.95
2023-05-21T03:09:16.824Z,6.90
2023-05-21T03:11:43.312Z,6.90
2023-05-21T03:14:10.109Z,7.10
2023-05-21T03:16:38.016Z,7.55
2023-05-21T03:19:04.715Z,7.10
2023-05-21T03:21:32.339Z,7.50
2023-05-21T03:23:58.851Z,6.90
2023-05-21T03:26:28.524Z,7.25
2023-05-21T03:28:56.032Z,6.65
2023-05-21T03:31:23.107Z,7.38
2023-05-21T03:33:49.644Z,6.57
2023-05-21T03:36:16.276Z,7.20
2023-05-21T03:38:42.839Z,6.75
2023-05-21T03:41:10.377Z,6.88
2023-05-21T03:43:36.890Z,7.38
2023-05-21T03:46:03.470Z,6.93
2023-05-21T03:48:30.428Z,7.15
2023-05-21T03:50:57.459Z,6.85
2023-05-21T03:53:24.421Z,7.68
2023-05-21T03:55:55.344Z,7.10
2023-05-21T03:58:22.430Z,6.65
2023-05-21T04:00:49.018Z,6.88
2023-05-21T04:03:16.034Z,7.70
2023-05-21T04:05:42.935Z,7.82
2023-05-21T04:08:09.716Z,7.03
2023-05-21T04:10:36.203Z,6.75
2023-05-21T04:13:02.820Z,6.95
2023-05-21T04:15:29.457Z,7.25
2023-05-21T04:17:56.044Z,7.32
2023-05-21T04:20:22.741Z,7.53
2023-05-21T04:22:49.274Z,7.57
2023-05-21T04:25:15.798Z,7.60
2023-05-21T04:27:43.554Z,7.70
2023-05-21T04:30:11.217Z,7.30
2023-05-21T04:32:38.593Z,6.97
2023-05-21T04:35:05.456Z,8.02
2023-05-21T04:37:35.075Z,9.13
2023-05-21T04:40:04.278Z,10.15
2023-05-21T04:42:30.900Z,8.80
2023-05-21T04:44:59.486Z,8.10
2023-05-21T04:47:26.230Z,7.85
2023-05-21T04:49:54.442Z,6.82
2023-05-21T04:52:21.005Z,6.00
2023-05-21T04:54:47.968Z,6.75
2023-05-21T04:57:14.481Z,7.07
2023-05-21T04:59:41.569Z,7.35
2023-05-21T23:56:12.795Z,3.55
2023-05-21T23:58:39.379Z,3.53
